sensor_id;sensor_type;location;lat;lon;timestamp;P1;durP1;ratioP1;P2;durP2;ratioP2
79592;SDS011;69074;45.164;9.704;2023-07-13T00:01:22;7.6;;;5.1;;
79592;SDS011;69074;45.164;9.704;2023-07-13T00:03:47;7.6;;;5.1;;
79592;SDS011;69074;45.164;9.704;2023-07-13T00:06:12;7.6;;;5.1;;
79592;SDS011;69074;45.164;9.704;2023-07-13T00:08:37;5.7;;;4.3;;
79592;SDS011;69074;45.164;9.704;2023-07-13T00:11:02;5.7;;;4.3;;
79592;SDS011;69074;45.164;9.704;2023-07-13T00:13:27;5.7;;;4.3;;
79592;SDS011;69074;45.164;9.704;2023-07-13T00:15:52;5.7;;;4.3;;
79592;SDS011;69074;45.164;9.704;2023-07-13T00:18:17;5.7;;;4.3;;
79592;SDS011;69074;45.164;9.704;2023-07-13T00:20:42;5.7;;;4.3;;
79592;SDS011;69074;45.164;9.704;2023-07-13T00:23:07;15.3;;;11.5;;
79592;SDS011;69074;45.164;9.704;2023-07-13T00:25:32;15.3;;;11.5;;
79592;SDS011;69074;45.164;9.704;2023-07-13T00:27:57;15.3;;;11.5;;
79592;SDS011;69074;45.164;9.704;2023-07-13T00:30:22;15.3;;;11.5;;
79592;SDS011;69074;45.164;9.704;2023-07-13T00:32:47;15.3;;;11.5;;
79592;SDS011;69074;45.164;9.704;2023-07-13T00:35:13;15.3;;;11.5;;
79592;SDS011;69074;45.164;9.704;2023-07-13T00:37:37;8.0;;;5.9;;
79592;SDS011;69074;45.164;9.704;2023-07-13T00:40:02;8.0;;;5.9;;
79592;SDS011;69074;45.164;9.704;2023-07-13T00:42:27;8.0;;;5.9;;
79592;SDS011;69074;45.164;9.704;2023-07-13T00:46:09;8.0;;;5.9;;
79592;SDS011;69074;45.164;9.704;2023-07-13T00:47:17;8.0;;;5.9;;
79592;SDS011;69074;45.164;9.704;2023-07-13T00:49:42;8.0;;;5.9;;
79592;SDS011;69074;45.164;9.704;2023-07-13T00:52:07;19.2;;;15.3;;
79592;SDS011;69074;45.164;9.704;2023-07-13T00:54:33;19.2;;;15.3;;
79592;SDS011;69074;45.164;9.704;2023-07-13T00:56:57;19.2;;;15.3;;
79592;SDS011;69074;45.164;9.704;2023-07-13T00:59:22;19.2;;;15.3;;
79592;SDS011;69074;45.164;9.704;2023-07-13T01:01:47;19.2;;;15.3;;
79592;SDS011;69074;45.164;9.704;2023-07-13T01:04:12;19.2;;;15.3;;
79592;SDS011;69074;45.164;9.704;2023-07-13T01:06:37;19.2;;;15.3;;
79592;SDS011;69074;45.164;9.704;2023-07-13T01:09:02;8.0;;;5.5;;
79592;SDS011;69074;45.164;9.704;2023-07-13T01:11:27;8.0;;;5.5;;
79592;SDS011;69074;45.164;9.704;2023-07-13T01:13:52;8.0;;;5.5;;
79592;SDS011;69074;45.164;9.704;2023-07-13T01:16:19;8.0;;;5.5;;
79592;SDS011;69074;45.164;9.704;2023-07-13T01:18:42;8.0;;;5.5;;
79592;SDS011;69074;45.164;9.704;2023-07-13T01:21:07;8.0;;;5.5;;
79592;SDS011;69074;45.164;9.704;2023-07-13T01:23:32;8.9;;;7.4;;
79592;SDS011;69074;45.164;9.704;2023-07-13T01:25:57;8.9;;;7.4;;
79592;SDS011;69074;45.164;9.704;2023-07-13T01:28:22;8.9;;;7.4;;
79592;SDS011;69074;45.164;9.704;2023-07-13T01:30:47;8.9;;;7.4;;
79592;SDS011;69074;45.164;9.704;2023-07-13T01:33:12;8.9;;;7.4;;
79592;SDS011;69074;45.164;9.704;2023-07-13T01:35:37;8.9;;;7.4;;
79592;SDS011;69074;45.164;9.704;2023-07-13T01:38:02;22.1;;;15.9;;
79592;SDS011;69074;45.164;9.704;2023-07-13T01:40:27;22.1;;;15.9;;
79592;SDS011;69074;45.164;9.704;2023-07-13T01:42:52;22.1;;;15.9;;
79592;SDS011;69074;45.164;9.704;2023-07-13T01:45:17;22.1;;;15.9;;
79592;SDS011;69074;45.164;9.704;2023-07-13T01:47:42;22.1;;;15.9;;
79592;SDS011;69074;45.164;9.704;2023-07-13T01:50:07;22.1;;;15.9;;
79592;SDS011;69074;45.164;9.704;2023-07-13T01:52:32;12.6;;;9.7;;
79592;SDS011;69074;45.164;9.704;2023-07-13T01:54:57;12.6;;;9.7;;
79592;SDS011;69074;45.164;9.704;2023-07-13T01:57:22;12.6;;;9.7;;
79592;SDS011;69074;45.164;9.704;2023-07-13T01:59:47;12.6;;;9.7;;
79592;SDS011;69074;45.164;9.704;2023-07-13T02:02:12;12.6;;;9.7;;
79592;SDS011;69074;45.164;9.704;2023-07-13T02:04:37;12.6;;;9.7;;
79592;SDS011;69074;45.164;9.704;2023-07-13T02:07:02;8.5;;;5.3;;
79592;SDS011;69074;45.164;9.704;2023-07-13T02:09:27;8.5;;;5.3;;
79592;SDS011;69074;45.164;9.704;2023-07-13T02:11:52;8.5;;;5.3;;
79592;SDS011;69074;45.164;9.704;2023-07-13T02:14:17;8.5;;;5.3;;
79592;SDS011;69074;45.164;9.704;2023-07-13T02:16:42;8.5;;;5.3;;
79592;SDS011;69074;45.164;9.704;2023-07-13T02:19:07;8.5;;;5.3;;
79592;SDS011;69074;45.164;9.704;2023-07-13T02:21:32;8.5;;;5.3;;
79592;SDS011;69074;45.164;9.704;2023-07-13T02:23:57;6.2;;;2.1;;
79592;SDS011;69074;45.164;9.704;2023-07-13T02:26:22;6.2;;;2.1;;
79592;SDS011;69074;45.164;9.704;2023-07-13T02:28:47;6.2;;;2.1;;
79592;SDS011;69074;45.164;9.704;2023-07-13T02:31:14;6.2;;;2.1;;
79592;SDS011;69074;45.164;9.704;2023-07-13T02:33:37;6.2;;;2.1;;
79592;SDS011;69074;45.164;9.704;2023-07-13T02:36:02;6.2;;;2.1;;
79592;SDS011;69074;45.164;9.704;2023-07-13T02:38:27;3.3;;;1.4;;
79592;SDS011;69074;45.164;9.704;2023-07-13T02:40:52;3.3;;;1.4;;
79592;SDS011;69074;45.164;9.704;2023-07-13T02:43:17;3.3;;;1.4;;
79592;SDS011;69074;45.164;9.704;2023-07-13T02:45:43;3.3;;;1.4;;
79592;SDS011;69074;45.164;9.704;2023-07-13T02:48:07;3.3;;;1.4;;
79592;SDS011;69074;45.164;9.704;2023-07-13T02:50:32;3.3;;;1.4;;
79592;SDS011;69074;45.164;9.704;2023-07-13T02:52:57;3.9;;;1.8;;
79592;SDS011;69074;45.164;9.704;2023-07-13T02:55:22;3.9;;;1.8;;
79592;SDS011;69074;45.164;9.704;2023-07-13T02:57:47;3.9;;;1.8;;
79592;SDS011;69074;45.164;9.704;2023-07-13T03:00:12;3.9;;;1.8;;
79592;SDS011;69074;45.164;9.704;2023-07-13T03:02:37;3.9;;;1.8;;
79592;SDS011;69074;45.164;9.704;2023-07-13T03:05:02;3.9;;;1.8;;
79592;SDS011;69074;45.164;9.704;2023-07-13T03:07:27;3.3;;;1.8;;
79592;SDS011;69074;45.164;9.704;2023-07-13T03:09:53;3.3;;;1.8;;
79592;SDS011;69074;45.164;9.704;2023-07-13T03:12:17;3.3;;;1.8;;
79592;SDS011;69074;45.164;9.704;2023-07-13T03:14:42;3.3;;;1.8;;
79592;SDS011;69074;45.164;9.704;2023-07-13T03:17:07;3.3;;;1.8;;
79592;SDS011;69074;45.164;9.704;2023-07-13T03:19:32;3.3;;;1.8;;
79592;SDS011;69074;45.164;9.704;2023-07-13T03:21:57;4.4;;;2.0;;
79592;SDS011;69074;45.164;9.704;2023-07-13T03:24:22;4.4;;;2.0;;
79592;SDS011;69074;45.164;9.704;2023-07-13T03:26:47;4.4;;;2.0;;
79592;SDS011;69074;45.164;9.704;2023-07-13T03:29:12;4.4;;;2.0;;
79592;SDS011;69074;45.164;9.704;2023-07-13T03:31:37;4.4;;;2.0;;
79592;SDS011;69074;45.164;9.704;2023-07-13T03:34:02;4.4;;;2.0;;
79592;SDS011;69074;45.164;9.704;2023-07-13T03:36:28;4.4;;;2.0;;
79592;SDS011;69074;45.164;9.704;2023-07-13T03:38:53;4.9;;;2.7;;
79592;SDS011;69074;45.164;9.704;2023-07-13T03:41:17;4.9;;;2.7;;
79592;SDS011;69074;45.164;9.704;2023-07-13T03:43:43;4.9;;;2.7;;
79592;SDS011;69074;45.164;9.704;2023-07-13T03:46:07;4.9;;;2.7;;
79592;SDS011;69074;45.164;9.704;2023-07-13T03:48:32;4.9;;;2.7;;
79592;SDS011;69074;45.164;9.704;2023-07-13T03:50:57;4.9;;;2.7;;
79592;SDS011;69074;45.164;9.704;2023-07-13T03:53:22;3.4;;;2.8;;
79592;SDS011;69074;45.164;9.704;2023-07-13T03:55:47;3.4;;;2.8;;
79592;SDS011;69074;45.164;9.704;2023-07-13T03:58:45;3.4;;;2.8;;
79592;SDS011;69074;45.164;9.704;2023-07-13T04:00:37;3.4;;;2.8;;
79592;SDS011;69074;45.164;9.704;2023-07-13T04:03:02;3.4;;;2.8;;
79592;SDS011;69074;45.164;9.704;2023-07-13T04:05:27;3.4;;;2.8;;
79592;SDS011;69074;45.164;9.704;2023-07-13T04:07:52;5.0;;;2.6;;
79592;SDS011;69074;45.164;9.704;2023-07-13T04:10:17;5.0;;;2.6;;
79592;SDS011;69074;45.164;9.704;2023-07-13T04:12:42;5.0;;;2.6;;
79592;SDS011;69074;45.164;9.704;2023-07-13T04:15:08;5.0;;;2.6;;
79592;SDS011;69074;45.164;9.704;2023-07-13T04:17:32;5.0;;;2.6;;
79592;SDS011;69074;45.164;9.704;2023-07-13T04:19:57;5.0;;;2.6;;
79592;SDS011;69074;45.164;9.704;2023-07-13T04:22:22;5.4;;;2.8;;
79592;SDS011;69074;45.164;9.704;2023-07-13T04:24:47;5.4;;;2.8;;
79592;SDS011;69074;45.164;9.704;2023-07-13T04:27:12;5.4;;;2.8;;
79592;SDS011;69074;45.164;9.704;2023-07-13T04:29:37;5.4;;;2.8;;
79592;SDS011;69074;45.164;9.704;2023-07-13T04:32:03;5.4;;;2.8;;
79592;SDS011;69074;45.164;9.704;2023-07-13T04:34:28;5.4;;;2.8;;
79592;SDS011;69074;45.164;9.704;2023-07-13T04:36:53;4.5;;;2.3;;
79592;SDS011;69074;45.164;9.704;2023-07-13T04:39:18;4.5;;;2.3;;
79592;SDS011;69074;45.164;9.704;2023-07-13T04:41:43;4.5;;;2.3;;
79592;SDS011;69074;45.164;9.704;2023-07-13T04:44:08;4.5;;;2.3;;
79592;SDS011;69074;45.164;9.704;2023-07-13T04:46:33;4.5;;;2.3;;
79592;SDS011;69074;45.164;9.704;2023-07-13T04:48:58;4.5;;;2.3;;
79592;SDS011;69074;45.164;9.704;2023-07-13T04:51:23;4.5;;;2.3;;
79592;SDS011;69074;45.164;9.704;2023-07-13T04:53:48;3.8;;;2.5;;
79592;SDS011;69074;45.164;9.704;2023-07-13T04:56:13;3.8;;;2.5;;
79592;SDS011;69074;45.164;9.704;2023-07-13T04:58:38;3.8;;;2.5;;
79592;SDS011;69074;45.164;9.704;2023-07-13T05:01:03;3.8;;;2.5;;
79592;SDS011;69074;45.164;9.704;2023-07-13T05:03:28;3.8;;;2.5;;
79592;SDS011;69074;45.164;9.704;2023-07-13T05:05:54;3.8;;;2.5;;
79592;SDS011;69074;45.164;9.704;2023-07-13T05:08:18;8.9;;;3.3;;
79592;SDS011;69074;45.164;9.704;2023-07-13T05:10:43;8.9;;;3.3;;
79592;SDS011;69074;45.164;9.704;2023-07-13T05:13:08;8.9;;;3.3;;
79592;SDS011;69074;45.164;9.704;2023-07-13T05:15:33;8.9;;;3.3;;
79592;SDS011;69074;45.164;9.704;2023-07-13T05:17:58;8.9;;;3.3;;
79592;SDS011;69074;45.164;9.704;2023-07-13T05:20:23;8.9;;;3.3;;
79592;SDS011;69074;45.164;9.704;2023-07-13T05:22:48;4.7;;;2.5;;
79592;SDS011;69074;45.164;9.704;2023-07-13T05:25:13;4.7;;;2.5;;
79592;SDS011;69074;45.164;9.704;2023-07-13T05:27:38;4.7;;;2.5;;
79592;SDS011;69074;45.164;9.704;2023-07-13T05:30:03;4.7;;;2.5;;
79592;SDS011;69074;45.164;9.704;2023-07-13T05:32:28;4.7;;;2.5;;
79592;SDS011;69074;45.164;9.704;2023-07-13T05:34:53;4.7;;;2.5;;
79592;SDS011;69074;45.164;9.704;2023-07-13T05:37:18;5.4;;;2.5;;
79592;SDS011;69074;45.164;9.704;2023-07-13T05:39:43;5.4;;;2.5;;
79592;SDS011;69074;45.164;9.704;2023-07-13T05:42:08;5.4;;;2.5;;
79592;SDS011;69074;45.164;9.704;2023-07-13T05:44:33;5.4;;;2.5;;
79592;SDS011;69074;45.164;9.704;2023-07-13T05:46:58;5.4;;;2.5;;
79592;SDS011;69074;45.164;9.704;2023-07-13T05:49:23;5.4;;;2.5;;
79592;SDS011;69074;45.164;9.704;2023-07-13T05:51:48;5.4;;;2.5;;
79592;SDS011;69074;45.164;9.704;2023-07-13T05:54:13;4.7;;;2.2;;
79592;SDS011;69074;45.164;9.704;2023-07-13T05:56:38;4.7;;;2.2;;
79592;SDS011;69074;45.164;9.704;2023-07-13T05:59:03;4.7;;;2.2;;
79592;SDS011;69074;45.164;9.704;2023-07-13T06:01:29;4.7;;;2.2;;
79592;SDS011;69074;45.164;9.704;2023-07-13T06:03:53;4.7;;;2.2;;
79592;SDS011;69074;45.164;9.704;2023-07-13T06:06:18;4.7;;;2.2;;
79592;SDS011;69074;45.164;9.704;2023-07-13T06:08:43;4.3;;;2.6;;
79592;SDS011;69074;45.164;9.704;2023-07-13T06:11:09;4.3;;;2.6;;
79592;SDS011;69074;45.164;9.704;2023-07-13T06:13:33;4.3;;;2.6;;
79592;SDS011;69074;45.164;9.704;2023-07-13T06:15:58;4.3;;;2.6;;
79592;SDS011;69074;45.164;9.704;2023-07-13T06:18:23;4.3;;;2.6;;
79592;SDS011;69074;45.164;9.704;2023-07-13T06:20:48;4.3;;;2.6;;
79592;SDS011;69074;45.164;9.704;2023-07-13T06:23:13;7.0;;;3.1;;
79592;SDS011;69074;45.164;9.704;2023-07-13T06:25:38;7.0;;;3.1;;
79592;SDS011;69074;45.164;9.704;2023-07-13T06:28:03;7.0;;;3.1;;
79592;SDS011;69074;45.164;9.704;2023-07-13T06:30:28;7.0;;;3.1;;
79592;SDS011;69074;45.164;9.704;2023-07-13T06:32:53;7.0;;;3.1;;
79592;SDS011;69074;45.164;9.704;2023-07-13T06:35:18;7.0;;;3.1;;
79592;SDS011;69074;45.164;9.704;2023-07-13T06:37:43;4.7;;;2.7;;
79592;SDS011;69074;45.164;9.704;2023-07-13T06:40:08;4.7;;;2.7;;
79592;SDS011;69074;45.164;9.704;2023-07-13T06:42:33;4.7;;;2.7;;
79592;SDS011;69074;45.164;9.704;2023-07-13T06:44:58;4.7;;;2.7;;
79592;SDS011;69074;45.164;9.704;2023-07-13T06:47:23;4.7;;;2.7;;
79592;SDS011;69074;45.164;9.704;2023-07-13T06:49:48;4.7;;;2.7;;
79592;SDS011;69074;45.164;9.704;2023-07-13T06:52:13;34.9;;;31.1;;
79592;SDS011;69074;45.164;9.704;2023-07-13T06:54:38;34.9;;;31.1;;
79592;SDS011;69074;45.164;9.704;2023-07-13T06:57:03;34.9;;;31.1;;
79592;SDS011;69074;45.164;9.704;2023-07-13T06:59:28;34.9;;;31.1;;
79592;SDS011;69074;45.164;9.704;2023-07-13T07:01:53;34.9;;;31.1;;
79592;SDS011;69074;45.164;9.704;2023-07-13T07:04:18;34.9;;;31.1;;
79592;SDS011;69074;45.164;9.704;2023-07-13T07:06:43;34.9;;;31.1;;
79592;SDS011;69074;45.164;9.704;2023-07-13T07:09:08;11.0;;;5.9;;
79592;SDS011;69074;45.164;9.704;2023-07-13T07:11:33;11.0;;;5.9;;
79592;SDS011;69074;45.164;9.704;2023-07-13T07:13:58;11.0;;;5.9;;
79592;SDS011;69074;45.164;9.704;2023-07-13T07:16:24;11.0;;;5.9;;
79592;SDS011;69074;45.164;9.704;2023-07-13T07:18:48;11.0;;;5.9;;
79592;SDS011;69074;45.164;9.704;2023-07-13T07:21:14;11.0;;;5.9;;
79592;SDS011;69074;45.164;9.704;2023-07-13T07:23:38;3.8;;;3.1;;
79592;SDS011;69074;45.164;9.704;2023-07-13T07:26:03;3.8;;;3.1;;
79592;SDS011;69074;45.164;9.704;2023-07-13T07:28:28;3.8;;;3.1;;
79592;SDS011;69074;45.164;9.704;2023-07-13T07:30:54;3.8;;;3.1;;
79592;SDS011;69074;45.164;9.704;2023-07-13T07:33:18;3.8;;;3.1;;
79592;SDS011;69074;45.164;9.704;2023-07-13T07:35:43;3.8;;;3.1;;
79592;SDS011;69074;45.164;9.704;2023-07-13T07:38:08;6.0;;;2.7;;
79592;SDS011;69074;45.164;9.704;2023-07-13T07:40:35;6.0;;;2.7;;
79592;SDS011;69074;45.164;9.704;2023-07-13T07:42:58;6.0;;;2.7;;
79592;SDS011;69074;45.164;9.704;2023-07-13T07:45:23;6.0;;;2.7;;
79592;SDS011;69074;45.164;9.704;2023-07-13T07:47:48;6.0;;;2.7;;
79592;SDS011;69074;45.164;9.704;2023-07-13T07:50:13;6.0;;;2.7;;
79592;SDS011;69074;45.164;9.704;2023-07-13T07:52:38;7.0;;;2.9;;
79592;SDS011;69074;45.164;9.704;2023-07-13T07:55:04;7.0;;;2.9;;
79592;SDS011;69074;45.164;9.704;2023-07-13T07:57:28;7.0;;;2.9;;
79592;SDS011;69074;45.164;9.704;2023-07-13T07:59:53;7.0;;;2.9;;
79592;SDS011;69074;45.164;9.704;2023-07-13T08:02:18;7.0;;;2.9;;
79592;SDS011;69074;45.164;9.704;2023-07-13T08:04:43;7.0;;;2.9;;
79592;SDS011;69074;45.164;9.704;2023-07-13T08:07:08;0.0;;;0.0;;
79592;SDS011;69074;45.164;9.704;2023-07-13T08:09:33;0.0;;;0.0;;
79592;SDS011;69074;45.164;9.704;2023-07-13T08:11:58;0.0;;;0.0;;
79592;SDS011;69074;45.164;9.704;2023-07-13T08:14:23;0.0;;;0.0;;
79592;SDS011;69074;45.164;9.704;2023-07-13T08:16:48;0.0;;;0.0;;
79592;SDS011;69074;45.164;9.704;2023-07-13T08:19:13;0.0;;;0.0;;
79592;SDS011;69074;45.164;9.704;2023-07-13T08:21:38;0.0;;;0.0;;
79592;SDS011;69074;45.164;9.704;2023-07-13T08:24:04;7.0;;;4.1;;
79592;SDS011;69074;45.164;9.704;2023-07-13T08:26:28;7.0;;;4.1;;
79592;SDS011;69074;45.164;9.704;2023-07-13T08:28:53;7.0;;;4.1;;
79592;SDS011;69074;45.164;9.704;2023-07-13T08:31:18;7.0;;;4.1;;
79592;SDS011;69074;45.164;9.704;2023-07-13T08:33:43;7.0;;;4.1;;
79592;SDS011;69074;45.164;9.704;2023-07-13T08:36:08;7.0;;;4.1;;
79592;SDS011;69074;45.164;9.704;2023-07-13T08:38:33;6.8;;;3.6;;
79592;SDS011;69074;45.164;9.704;2023-07-13T08:40:58;6.8;;;3.6;;
79592;SDS011;69074;45.164;9.704;2023-07-13T08:43:25;6.8;;;3.6;;
79592;SDS011;69074;45.164;9.704;2023-07-13T08:45:49;6.8;;;3.6;;
79592;SDS011;69074;45.164;9.704;2023-07-13T08:48:14;6.8;;;3.6;;
79592;SDS011;69074;45.164;9.704;2023-07-13T08:50:40;6.8;;;3.6;;
79592;SDS011;69074;45.164;9.704;2023-07-13T08:53:03;8.5;;;3.8;;
79592;SDS011;69074;45.164;9.704;2023-07-13T08:55:29;8.5;;;3.8;;
79592;SDS011;69074;45.164;9.704;2023-07-13T08:57:54;8.5;;;3.8;;
79592;SDS011;69074;45.164;9.704;2023-07-13T09:00:19;8.5;;;3.8;;
79592;SDS011;69074;45.164;9.704;2023-07-13T09:02:45;8.5;;;3.8;;
79592;SDS011;69074;45.164;9.704;2023-07-13T09:05:10;8.5;;;3.8;;
79592;SDS011;69074;45.164;9.704;2023-07-13T09:07:41;7.8;;;4.0;;
79592;SDS011;69074;45.164;9.704;2023-07-13T09:10:02;7.8;;;4.0;;
79592;SDS011;69074;45.164;9.704;2023-07-13T09:12:25;7.8;;;4.0;;
79592;SDS011;69074;45.164;9.704;2023-07-13T09:14:50;7.8;;;4.0;;
79592;SDS011;69074;45.164;9.704;2023-07-13T09:17:15;7.8;;;4.0;;
79592;SDS011;69074;45.164;9.704;2023-07-13T09:19:39;7.8;;;4.0;;
79592;SDS011;69074;45.164;9.704;2023-07-13T09:22:04;7.8;;;4.0;;
79592;SDS011;69074;45.164;9.704;2023-07-13T09:24:31;22.6;;;20.2;;
79592;SDS011;69074;45.164;9.704;2023-07-13T09:26:54;22.6;;;20.2;;
79592;SDS011;69074;45.164;9.704;2023-07-13T09:29:20;22.6;;;20.2;;
79592;SDS011;69074;45.164;9.704;2023-07-13T09:31:45;22.6;;;20.2;;
79592;SDS011;69074;45.164;9.704;2023-07-13T09:34:09;22.6;;;20.2;;
79592;SDS011;69074;45.164;9.704;2023-07-13T09:36:34;22.6;;;20.2;;
79592;SDS011;69074;45.164;9.704;2023-07-13T09:39:01;9.8;;;6.0;;
79592;SDS011;69074;45.164;9.704;2023-07-13T09:41:26;9.8;;;6.0;;
79592;SDS011;69074;45.164;9.704;2023-07-13T09:44:07;9.8;;;6.0;;
79592;SDS011;69074;45.164;9.704;2023-07-13T09:46:19;9.8;;;6.0;;
79592;SDS011;69074;45.164;9.704;2023-07-13T09:48:39;9.8;;;6.0;;
79592;SDS011;69074;45.164;9.704;2023-07-13T09:51:07;9.8;;;6.0;;
79592;SDS011;69074;45.164;9.704;2023-07-13T09:53:29;7.5;;;3.3;;
79592;SDS011;69074;45.164;9.704;2023-07-13T09:55:54;7.5;;;3.3;;
79592;SDS011;69074;45.164;9.704;2023-07-13T09:58:20;7.5;;;3.3;;
79592;SDS011;69074;45.164;9.704;2023-07-13T10:00:53;7.5;;;3.3;;
79592;SDS011;69074;45.164;9.704;2023-07-13T10:03:14;7.5;;;3.3;;
79592;SDS011;69074;45.164;9.704;2023-07-13T10:05:38;7.5;;;3.3;;
79592;SDS011;69074;45.164;9.704;2023-07-13T10:07:59;10.6;;;8.4;;
79592;SDS011;69074;45.164;9.704;2023-07-13T10:10:24;10.6;;;8.4;;
79592;SDS011;69074;45.164;9.704;2023-07-13T10:12:49;10.6;;;8.4;;
79592;SDS011;69074;45.164;9.704;2023-07-13T10:15:14;10.6;;;8.4;;
79592;SDS011;69074;45.164;9.704;2023-07-13T10:17:39;10.6;;;8.4;;
79592;SDS011;69074;45.164;9.704;2023-07-13T10:20:04;10.6;;;8.4;;
79592;SDS011;69074;45.164;9.704;2023-07-13T10:22:31;5.2;;;3.7;;
79592;SDS011;69074;45.164;9.704;2023-07-13T10:24:54;5.2;;;3.7;;
79592;SDS011;69074;45.164;9.704;2023-07-13T10:27:20;5.2;;;3.7;;
79592;SDS011;69074;45.164;9.704;2023-07-13T10:29:45;5.2;;;3.7;;
79592;SDS011;69074;45.164;9.704;2023-07-13T10:32:09;5.2;;;3.7;;
79592;SDS011;69074;45.164;9.704;2023-07-13T10:34:34;5.2;;;3.7;;
79592;SDS011;69074;45.164;9.704;2023-07-13T10:36:59;5.2;;;3.7;;
79592;SDS011;69074;45.164;9.704;2023-07-13T10:39:26;6.5;;;3.4;;
79592;SDS011;69074;45.164;9.704;2023-07-13T10:41:50;6.5;;;3.4;;
79592;SDS011;69074;45.164;9.704;2023-07-13T10:44:17;6.5;;;3.4;;
79592;SDS011;69074;45.164;9.704;2023-07-13T10:46:39;6.5;;;3.4;;
79592;SDS011;69074;45.164;9.704;2023-07-13T10:49:04;6.5;;;3.4;;
79592;SDS011;69074;45.164;9.704;2023-07-13T10:51:29;6.5;;;3.4;;
79592;SDS011;69074;45.164;9.704;2023-07-13T10:54:27;8.9;;;2.4;;
79592;SDS011;69074;45.164;9.704;2023-07-13T10:56:22;8.9;;;2.4;;
79592;SDS011;69074;45.164;9.704;2023-07-13T10:58:44;8.9;;;2.4;;
79592;SDS011;69074;45.164;9.704;2023-07-13T11:01:10;8.9;;;2.4;;
79592;SDS011;69074;45.164;9.704;2023-07-13T11:03:35;8.9;;;2.4;;
79592;SDS011;69074;45.164;9.704;2023-07-13T11:06:08;8.9;;;2.4;;
79592;SDS011;69074;45.164;9.704;2023-07-13T11:08:32;18.7;;;13.7;;
79592;SDS011;69074;45.164;9.704;2023-07-13T11:10:51;18.7;;;13.7;;
79592;SDS011;69074;45.164;9.704;2023-07-13T11:13:35;18.7;;;13.7;;
79592;SDS011;69074;45.164;9.704;2023-07-13T11:15:43;18.7;;;13.7;;
79592;SDS011;69074;45.164;9.704;2023-07-13T11:18:04;18.7;;;13.7;;
79592;SDS011;69074;45.164;9.704;2023-07-13T11:20:32;18.7;;;13.7;;
79592;SDS011;69074;45.164;9.704;2023-07-13T11:23:08;8.3;;;4.1;;
79592;SDS011;69074;45.164;9.704;2023-07-13T11:25:21;8.3;;;4.1;;
79592;SDS011;69074;45.164;9.704;2023-07-13T11:27:45;8.3;;;4.1;;
79592;SDS011;69074;45.164;9.704;2023-07-13T11:30:18;8.3;;;4.1;;
79592;SDS011;69074;45.164;9.704;2023-07-13T11:32:34;8.3;;;4.1;;
79592;SDS011;69074;45.164;9.704;2023-07-13T11:34:59;8.3;;;4.1;;
79592;SDS011;69074;45.164;9.704;2023-07-13T11:37:24;7.5;;;3.5;;
79592;SDS011;69074;45.164;9.704;2023-07-13T11:39:50;7.5;;;3.5;;
79592;SDS011;69074;45.164;9.704;2023-07-13T11:42:15;7.5;;;3.5;;
79592;SDS011;69074;45.164;9.704;2023-07-13T11:44:41;7.5;;;3.5;;
79592;SDS011;69074;45.164;9.704;2023-07-13T11:47:07;7.5;;;3.5;;
79592;SDS011;69074;45.164;9.704;2023-07-13T11:49:30;7.5;;;3.5;;
79592;SDS011;69074;45.164;9.704;2023-07-13T11:51:54;7.5;;;3.5;;
79592;SDS011;69074;45.164;9.704;2023-07-13T11:54:22;11.1;;;6.3;;
79592;SDS011;69074;45.164;9.704;2023-07-13T11:56:44;11.1;;;6.3;;
79592;SDS011;69074;45.164;9.704;2023-07-13T11:59:10;11.1;;;6.3;;
79592;SDS011;69074;45.164;9.704;2023-07-13T12:01:34;11.1;;;6.3;;
79592;SDS011;69074;45.164;9.704;2023-07-13T12:03:59;11.1;;;6.3;;
79592;SDS011;69074;45.164;9.704;2023-07-13T12:06:26;11.1;;;6.3;;
79592;SDS011;69074;45.164;9.704;2023-07-13T12:08:49;8.8;;;3.5;;
79592;SDS011;69074;45.164;9.704;2023-07-13T12:11:16;8.8;;;3.5;;
79592;SDS011;69074;45.164;9.704;2023-07-13T12:13:39;8.8;;;3.5;;
79592;SDS011;69074;45.164;9.704;2023-07-13T12:16:10;8.8;;;3.5;;
79592;SDS011;69074;45.164;9.704;2023-07-13T12:18:30;8.8;;;3.5;;
79592;SDS011;69074;45.164;9.704;2023-07-13T12:20:55;8.8;;;3.5;;
79592;SDS011;69074;45.164;9.704;2023-07-13T12:23:21;8.2;;;3.5;;
79592;SDS011;69074;45.164;9.704;2023-07-13T12:25:44;8.2;;;3.5;;
79592;SDS011;69074;45.164;9.704;2023-07-13T12:28:19;8.2;;;3.5;;
79592;SDS011;69074;45.164;9.704;2023-07-13T12:30:34;8.2;;;3.5;;
79592;SDS011;69074;45.164;9.704;2023-07-13T12:33:00;8.2;;;3.5;;
79592;SDS011;69074;45.164;9.704;2023-07-13T12:35:24;8.2;;;3.5;;
79592;SDS011;69074;45.164;9.704;2023-07-13T12:37:50;10.4;;;4.0;;
79592;SDS011;69074;45.164;9.704;2023-07-13T12:40:15;10.4;;;4.0;;
79592;SDS011;69074;45.164;9.704;2023-07-13T12:42:39;10.4;;;4.0;;
79592;SDS011;69074;45.164;9.704;2023-07-13T12:45:10;10.4;;;4.0;;
79592;SDS011;69074;45.164;9.704;2023-07-13T12:47:30;10.4;;;4.0;;
79592;SDS011;69074;45.164;9.704;2023-07-13T12:49:56;10.4;;;4.0;;
79592;SDS011;69074;45.164;9.704;2023-07-13T12:52:20;8.1;;;3.6;;
79592;SDS011;69074;45.164;9.704;2023-07-13T12:54:52;8.1;;;3.6;;
79592;SDS011;69074;45.164;9.704;2023-07-13T12:57:12;8.1;;;3.6;;
79592;SDS011;69074;45.164;9.704;2023-07-13T12:59:34;8.1;;;3.6;;
79592;SDS011;69074;45.164;9.704;2023-07-13T13:01:59;8.1;;;3.6;;
79592;SDS011;69074;45.164;9.704;2023-07-13T13:04:24;8.1;;;3.6;;
79592;SDS011;69074;45.164;9.704;2023-07-13T13:07:00;8.1;;;3.6;;
79592;SDS011;69074;45.164;9.704;2023-07-13T13:09:15;5.4;;;3.6;;
79592;SDS011;69074;45.164;9.704;2023-07-13T13:11:40;5.4;;;3.6;;
79592;SDS011;69074;45.164;9.704;2023-07-13T13:14:04;5.4;;;3.6;;
79592;SDS011;69074;45.164;9.704;2023-07-13T13:16:30;5.4;;;3.6;;
79592;SDS011;69074;45.164;9.704;2023-07-13T13:18:55;5.4;;;3.6;;
79592;SDS011;69074;45.164;9.704;2023-07-13T13:21:20;5.4;;;3.6;;
79592;SDS011;69074;45.164;9.704;2023-07-13T13:23:45;9.0;;;6.1;;
79592;SDS011;69074;45.164;9.704;2023-07-13T13:26:10;9.0;;;6.1;;
79592;SDS011;69074;45.164;9.704;2023-07-13T13:28:34;9.0;;;6.1;;
79592;SDS011;69074;45.164;9.704;2023-07-13T13:30:59;9.0;;;6.1;;
79592;SDS011;69074;45.164;9.704;2023-07-13T13:33:24;9.0;;;6.1;;
79592;SDS011;69074;45.164;9.704;2023-07-13T13:35:49;9.0;;;6.1;;
79592;SDS011;69074;45.164;9.704;2023-07-13T13:38:15;6.1;;;3.8;;
79592;SDS011;69074;45.164;9.704;2023-07-13T13:40:40;6.1;;;3.8;;
79592;SDS011;69074;45.164;9.704;2023-07-13T13:43:09;6.1;;;3.8;;
79592;SDS011;69074;45.164;9.704;2023-07-13T13:45:30;6.1;;;3.8;;
79592;SDS011;69074;45.164;9.704;2023-07-13T13:47:54;6.1;;;3.8;;
79592;SDS011;69074;45.164;9.704;2023-07-13T13:50:20;6.1;;;3.8;;
79592;SDS011;69074;45.164;9.704;2023-07-13T13:52:44;16.5;;;10.9;;
79592;SDS011;69074;45.164;9.704;2023-07-13T13:55:11;16.5;;;10.9;;
79592;SDS011;69074;45.164;9.704;2023-07-13T13:57:35;16.5;;;10.9;;
79592;SDS011;69074;45.164;9.704;2023-07-13T14:00:00;16.5;;;10.9;;
79592;SDS011;69074;45.164;9.704;2023-07-13T14:02:25;16.5;;;10.9;;
79592;SDS011;69074;45.164;9.704;2023-07-13T14:04:50;16.5;;;10.9;;
79592;SDS011;69074;45.164;9.704;2023-07-13T14:07:15;14.7;;;5.3;;
79592;SDS011;69074;45.164;9.704;2023-07-13T14:09:40;14.7;;;5.3;;
79592;SDS011;69074;45.164;9.704;2023-07-13T14:12:05;14.7;;;5.3;;
79592;SDS011;69074;45.164;9.704;2023-07-13T14:14:30;14.7;;;5.3;;
79592;SDS011;69074;45.164;9.704;2023-07-13T14:16:55;14.7;;;5.3;;
79592;SDS011;69074;45.164;9.704;2023-07-13T14:19:20;14.7;;;5.3;;
79592;SDS011;69074;45.164;9.704;2023-07-13T14:21:45;14.7;;;5.3;;
79592;SDS011;69074;45.164;9.704;2023-07-13T14:24:10;7.9;;;4.1;;
79592;SDS011;69074;45.164;9.704;2023-07-13T14:26:36;7.9;;;4.1;;
79592;SDS011;69074;45.164;9.704;2023-07-13T14:29:00;7.9;;;4.1;;
79592;SDS011;69074;45.164;9.704;2023-07-13T14:31:25;7.9;;;4.1;;
79592;SDS011;69074;45.164;9.704;2023-07-13T14:33:50;7.9;;;4.1;;
79592;SDS011;69074;45.164;9.704;2023-07-13T14:36:20;7.9;;;4.1;;
79592;SDS011;69074;45.164;9.704;2023-07-13T14:38:40;8.3;;;4.5;;
79592;SDS011;69074;45.164;9.704;2023-07-13T14:41:07;8.3;;;4.5;;
79592;SDS011;69074;45.164;9.704;2023-07-13T14:43:30;8.3;;;4.5;;
79592;SDS011;69074;45.164;9.704;2023-07-13T14:45:55;8.3;;;4.5;;
79592;SDS011;69074;45.164;9.704;2023-07-13T14:48:20;8.3;;;4.5;;
79592;SDS011;69074;45.164;9.704;2023-07-13T14:50:45;8.3;;;4.5;;
79592;SDS011;69074;45.164;9.704;2023-07-13T14:53:10;6.8;;;4.0;;
79592;SDS011;69074;45.164;9.704;2023-07-13T14:55:35;6.8;;;4.0;;